TKPN METAR and TAF | Updated Today

TKPN METAR

Vance W. Amory International Airport

Observation time: 72 min. ago

TKPN 032200Z 12007KT 9999 BKN018 27/25 Q1013

Need help? Read our tutorial on how to read METARs or read the parsed version below.

Vance W. Amory International Airport (TKPN) METAR

  • Weather conditions on Fri, 03 Dec 2021 22:00:00 +0000 (72 min. ago):
  • Present conditions: Dry
  • Clouds: Broken sky at 549 meters
  • Visibility: Greater than 10 km
  • Wind: 120 degrees at 7 knots
  • Temperature: 27 celsius
  • Dew point: 25 celsius
  • Pressure: 1013 millibars
  • Remarks: None


Useful to know...

TKPN TAF

Vance W. Amory International Airport

TAF TKPN 031700Z 0318/0418 08013KT 9999 SCT019 PROB30 TEMPO 0318/0418 SHRA
Observation time: 6:12 hr. ago
Need help? Read our tutorial on how to read TAFs or read the parsed version below.

Parsed version of TAF for Vance W. Amory International Airport (TKPN)

  • From 03 December at 18:00 UTC, to day 04 of the month at 18:00 UTC
  • Clouds: Scattered at 579 meters
  • Visibility: Greater than 10 km
  • Wind: 80 degrees at 13
  • Expected to arise temporarily, from 03 December at 18:00 UTC, to day 04 of the month at 18:00 UTC
    Probability of 30%